Time;durP1;ratioP1;P1;durP2;ratioP2;P2;SDS_P1;SDS_P2;PMS_P1;PMS_P2;Temp;Humidity;BMP_temperature;BMP_pressure;BME280_temperature;BME280_humidity;BME280_pressure;Samples;Min_cycle;Max_cycle;Signal;HPM_P1;HPM_P2
2020/12/07 00:01:18;;;;;;;12.73;6.05;;;;;;;-0.66;50.41;102420.98;1709562;84;21204;-78
2020/12/07 00:03:46;;;;;;;13.35;6.12;;;;;;;-0.74;50.59;102443.53;1709573;84;21375;-78
2020/12/07 00:06:20;;;;;;;12.10;6.37;;;;;;;-0.84;50.63;102461.30;1709647;83;21110;-78
2020/12/07 00:08:49;;;;;;;13.65;6.42;;;;;;;-0.93;50.93;102436.98;1709784;83;21196;-79
2020/12/07 00:11:17;;;;;;;9.98;5.08;;;;;;;-0.87;51.03;102439.45;1709644;84;21097;-83
2020/12/07 00:13:46;;;;;;;10.72;5.22;;;;;;;-0.77;50.96;102468.62;1709435;84;21544;-78
2020/12/07 00:16:14;;;;;;;12.05;5.28;;;;;;;-0.81;50.96;102438.02;1709695;84;21216;-78
2020/12/07 00:18:41;;;;;;;10.15;5.25;;;;;;;-0.78;50.97;102419.50;1709656;84;21164;-79
2020/12/07 00:21:09;;;;;;;12.23;5.75;;;;;;;-0.74;50.72;102425.56;1709282;82;21193;-78
2020/12/07 00:23:38;;;;;;;9.65;4.97;;;;;;;-0.79;50.82;102430.94;1709237;82;21212;-79
2020/12/07 00:26:10;;;;;;;10.05;5.58;;;;;;;-0.83;50.71;102435.86;1708779;84;21194;-78
2020/12/07 00:28:38;;;;;;;10.48;5.20;;;;;;;-0.88;50.94;102419.32;1708644;82;21306;-78
2020/12/07 00:31:06;;;;;;;12.40;5.45;;;;;;;-0.81;50.58;102415.66;1709479;82;21221;-79
2020/12/07 00:33:33;;;;;;;11.88;5.12;;;;;;;-0.75;50.45;102407.59;1709443;84;21088;-78
2020/12/07 00:36:01;;;;;;;12.33;6.15;;;;;;;-0.69;50.25;102416.64;1709602;83;21168;-79
2020/12/07 00:38:29;;;;;;;10.70;6.45;;;;;;;-0.74;50.16;102405.38;1709612;83;21160;-79
2020/12/07 00:40:58;;;;;;;8.40;4.35;;;;;;;-0.75;50.25;102419.44;1708764;84;21362;-79
2020/12/07 00:43:25;;;;;;;9.88;4.97;;;;;;;-0.75;50.44;102439.17;1709292;83;21114;-78
2020/12/07 00:45:53;;;;;;;8.45;5.37;;;;;;;-0.82;50.85;102411.27;1709324;83;21180;-77
2020/12/07 00:48:21;;;;;;;11.55;5.40;;;;;;;-0.93;50.76;102410.22;1708358;84;21471;-78
2020/12/07 00:50:49;;;;;;;13.05;5.72;;;;;;;-1.00;50.96;102405.13;1708318;83;21208;-77
2020/12/07 00:53:17;;;;;;;11.73;5.65;;;;;;;-0.99;50.99;102408.20;1708181;84;21799;-78
2020/12/07 00:55:45;;;;;;;10.53;5.25;;;;;;;-0.92;51.09;102409.77;1708177;84;21216;-78
2020/12/07 00:58:14;;;;;;;10.45;5.78;;;;;;;-0.81;51.19;102407.30;1708343;84;21193;-78
2020/12/07 01:00:43;;;;;;;12.18;5.78;;;;;;;-0.76;51.11;102405.87;1708240;84;21228;-78
2020/12/07 01:03:11;;;;;;;7.80;3.95;;;;;;;-0.77;50.83;102404.16;1709440;84;21157;-79
2020/12/07 01:05:39;;;;;;;10.58;4.62;;;;;;;-0.78;50.81;102411.16;1709369;84;21817;-79
2020/12/07 01:08:06;;;;;;;11.83;5.83;;;;;;;-0.79;50.90;102409.89;1709526;84;21164;-78
2020/12/07 01:10:36;;;;;;;9.05;4.20;;;;;;;-0.86;51.12;102401.30;1709544;84;21089;-78
2020/12/07 01:13:04;;;;;;;11.95;5.85;;;;;;;-0.82;51.12;102392.85;1709484;83;21136;-77
2020/12/07 01:15:33;;;;;;;13.68;7.12;;;;;;;-0.77;51.13;102382.65;1709557;83;21602;-79
2020/12/07 01:18:01;;;;;;;12.33;5.92;;;;;;;-0.71;51.11;102392.61;1709788;84;21596;-79
2020/12/07 01:20:32;;;;;;;9.53;5.47;;;;;;;-0.66;50.93;102422.30;1709584;84;21200;-78
2020/12/07 01:23:01;;;;;;;9.85;5.25;;;;;;;-0.70;50.78;102387.75;1682337;84;21612;-77
2020/12/07 01:25:29;;;;;;;11.33;5.35;;;;;;;-0.74;50.70;102369.84;1709706;83;21216;-78
2020/12/07 01:27:58;;;;;;;14.25;5.67;;;;;;;-0.71;50.63;102371.55;1709837;84;21144;-77
2020/12/07 01:30:26;;;;;;;9.58;5.40;;;;;;;-0.73;50.49;102375.97;1709929;84;21179;-78
2020/12/07 01:32:54;;;;;;;12.60;5.85;;;;;;;-0.75;50.61;102376.02;1709812;84;21114;-78
2020/12/07 01:35:22;;;;;;;8.98;4.67;;;;;;;-0.77;50.56;102377.84;1709918;84;21148;-78
2020/12/07 01:37:50;;;;;;;12.65;5.60;;;;;;;-0.57;50.33;102399.23;1708907;84;21225;-78
2020/12/07 01:40:17;;;;;;;12.63;5.20;;;;;;;-0.71;50.59;102386.89;1708047;84;21220;-78
2020/12/07 01:42:46;;;;;;;10.88;4.97;;;;;;;-0.72;50.75;102393.52;1709574;84;21373;-78
2020/12/07 01:45:14;;;;;;;16.02;8.15;;;;;;;-0.73;50.71;102384.73;1709910;84;21545;-79
2020/12/07 01:47:41;;;;;;;14.78;6.28;;;;;;;-0.74;50.77;102393.98;1709915;84;21161;-79
2020/12/07 01:50:11;;;;;;;14.87;7.17;;;;;;;-0.68;50.64;102409.19;1709721;84;21160;-79
2020/12/07 01:52:40;;;;;;;11.78;5.62;;;;;;;-0.61;50.51;102394.09;1709919;83;21160;-79
2020/12/07 01:55:09;;;;;;;10.60;6.10;;;;;;;-0.50;50.19;102402.56;1709606;84;21733;-78
2020/12/07 01:57:53;;;;;;;11.80;6.75;;;;;;;-0.37;49.88;102397.84;1890533;76;22725;-79
2020/12/07 02:00:23;;;;;;;10.70;5.40;;;;;;;-0.36;49.50;102391.70;1861190;77;21076;-78
2020/12/07 02:02:56;;;;;;;10.70;6.22;;;;;;;-0.32;49.03;102416.59;1859572;77;21702;-77
2020/12/07 02:05:27;;;;;;;7.17;4.08;;;;;;;-0.41;49.08;102408.94;1861061;77;21564;-79
2020/12/07 02:08:16;;;;;;;10.95;5.53;;;;;;;-0.43;48.73;102419.95;1828848;77;21599;-80
2020/12/07 02:10:47;;;;;;;9.65;5.50;;;;;;;-0.53;48.65;102408.79;1860917;77;21128;-78
2020/12/07 02:13:17;;;;;;;7.97;4.28;;;;;;;-0.61;48.64;102420.41;1861190;77;21106;-79
2020/12/07 02:15:45;;;;;;;13.13;6.45;;;;;;;-0.61;48.57;102416.01;1861109;77;21797;-78
2020/12/07 02:18:13;;;;;;;10.85;5.75;;;;;;;-0.56;48.47;102398.78;1828634;77;21057;-79
2020/12/07 02:20:47;;;;;;;10.63;6.35;;;;;;;-0.57;48.09;102401.02;1861173;77;21065;-78
2020/12/07 02:23:17;;;;;;;9.93;4.53;;;;;;;-0.64;48.14;102409.95;1839827;77;21180;-78
2020/12/07 02:25:55;;;;;;;9.38;5.53;;;;;;;-0.73;47.99;102406.23;1749849;81;21177;-80
2020/12/07 02:28:25;;;;;;;9.95;5.75;;;;;;;-0.78;48.16;102403.72;1772936;80;21788;-78
2020/12/07 02:30:52;;;;;;;12.15;6.58;;;;;;;-0.86;48.29;102417.53;1774504;80;21748;-78
2020/12/07 02:33:21;;;;;;;11.22;5.60;;;;;;;-0.89;48.31;102435.56;1782678;80;21062;-79
2020/12/07 02:35:50;;;;;;;13.68;6.25;;;;;;;-1.05;48.37;102419.70;1805721;79;21185;-78
2020/12/07 02:38:18;;;;;;;12.20;5.65;;;;;;;-1.08;48.46;102415.41;1805552;78;21636;-80
2020/12/07 02:40:47;;;;;;;8.38;5.08;;;;;;;-1.05;48.56;102412.68;1782147;80;21137;-78
2020/12/07 02:43:16;;;;;;;10.40;6.00;;;;;;;-0.88;48.20;102419.32;1814617;79;21687;-79
2020/12/07 02:45:45;;;;;;;12.98;6.33;;;;;;;-0.98;48.24;102404.21;1772181;79;21578;-81
2020/12/07 02:48:15;;;;;;;9.65;5.58;;;;;;;-1.03;48.44;102416.16;1785990;80;21171;-79
2020/12/07 02:50:44;;;;;;;10.30;4.90;;;;;;;-1.04;48.47;102409.17;1788291;80;21143;-80
2020/12/07 02:53:14;;;;;;;13.25;6.65;;;;;;;-1.02;48.31;102405.18;1788217;80;22016;-78
2020/12/07 02:55:43;;;;;;;10.58;5.03;;;;;;;-1.08;48.42;102408.83;1788287;80;21537;-80
2020/12/07 02:58:10;;;;;;;13.18;6.08;;;;;;;-1.12;48.59;102408.48;1788554;80;21135;-80
2020/12/07 03:00:39;;;;;;;11.50;5.87;;;;;;;-1.07;48.30;102401.34;1788550;80;21065;-77
2020/12/07 03:03:07;;;;;;;9.63;5.45;;;;;;;-1.08;48.58;102404.88;1788613;80;21120;-80
2020/12/07 03:05:36;;;;;;;11.80;5.47;;;;;;;-1.07;48.63;102403.11;1788295;79;21737;-78
2020/12/07 03:08:06;;;;;;;8.93;5.00;;;;;;;-1.05;48.61;102406.56;1787339;80;21536;-78
2020/12/07 03:10:34;;;;;;;12.65;5.25;;;;;;;-1.00;48.65;102406.00;1788124;80;21151;-78
2020/12/07 03:13:02;;;;;;;10.55;4.55;;;;;;;-0.92;48.68;102400.56;1788093;80;21107;-78
2020/12/07 03:15:32;;;;;;;10.95;6.20;;;;;;;-0.87;48.37;102414.01;1787928;80;21067;-79
2020/12/07 03:18:00;;;;;;;10.65;5.25;;;;;;;-0.92;48.19;102411.08;1788506;79;21358;-80
2020/12/07 03:20:30;;;;;;;9.15;4.37;;;;;;;-0.99;48.49;102406.89;1787880;80;21186;-80
2020/12/07 03:23:00;;;;;;;9.33;5.55;;;;;;;-0.94;48.44;102419.48;1792034;76;21148;-79
2020/12/07 03:25:28;;;;;;;11.53;5.20;;;;;;;-0.96;48.61;102413.37;1770856;77;21124;-80
2020/12/07 03:27:57;;;;;;;11.80;5.62;;;;;;;-0.96;48.67;102434.41;1788223;80;21134;-81
2020/12/07 03:30:25;;;;;;;10.75;5.83;;;;;;;-1.07;48.79;102423.70;1788004;80;21819;-79
2020/12/07 03:32:54;;;;;;;11.97;5.87;;;;;;;-1.06;48.85;102419.30;1782183;80;21486;-79
2020/12/07 03:35:23;;;;;;;12.00;6.65;;;;;;;-1.04;48.79;102436.79;1772005;81;21501;-79
2020/12/07 03:37:52;;;;;;;12.07;6.05;;;;;;;-1.03;48.57;102426.67;1769284;80;21479;-78
2020/12/07 03:40:20;;;;;;;12.23;6.05;;;;;;;-1.00;48.63;102430.98;1786441;79;21209;-79
2020/12/07 03:42:49;;;;;;;15.00;6.37;;;;;;;-0.96;48.63;102424.75;1764944;80;22632;-78
2020/12/07 03:45:18;;;;;;;10.55;5.40;;;;;;;-0.97;48.64;102430.92;1786670;80;21180;-80
2020/12/07 03:47:45;;;;;;;8.25;4.72;;;;;;;-0.98;48.56;102429.66;1755354;81;21181;-79
2020/12/07 03:50:15;;;;;;;10.08;5.15;;;;;;;-1.00;48.76;102444.59;1756136;81;21181;-79
2020/12/07 03:52:44;;;;;;;9.78;4.90;;;;;;;-1.04;48.63;102424.95;1756743;81;21189;-80
2020/12/07 03:55:14;;;;;;;10.98;5.55;;;;;;;-0.95;48.80;102440.08;1755680;81;21798;-78
2020/12/07 03:57:42;;;;;;;9.90;4.97;;;;;;;-0.91;48.50;102419.38;1755712;81;21085;-78
2020/12/07 04:00:10;;;;;;;11.33;5.40;;;;;;;-0.83;48.32;102428.82;1756862;81;21078;-79
2020/12/07 04:02:41;;;;;;;10.15;4.87;;;;;;;-0.83;48.24;102426.19;1756596;81;21066;-80
2020/12/07 04:05:21;;;;;;;14.25;6.28;;;;;;;-0.80;48.08;102439.28;1756311;81;21497;-79
2020/12/07 04:07:43;;;;;;;11.80;5.85;;;;;;;-0.89;48.01;102440.82;1754702;81;21810;-80
2020/12/07 04:10:13;;;;;;;10.53;5.00;;;;;;;-0.90;48.09;102432.52;1787884;80;21134;-81
2020/12/07 04:12:41;;;;;;;10.68;5.78;;;;;;;-0.60;47.54;102432.20;1756713;81;21054;-79
2020/12/07 04:15:09;;;;;;;15.30;6.87;;;;;;;-0.79;47.60;102454.16;1756747;81;21616;-78
2020/12/07 04:17:36;;;;;;;16.55;7.42;;;;;;;-0.81;47.61;102444.59;1756703;81;21231;-80
2020/12/07 04:20:05;;;;;;;12.80;6.62;;;;;;;-0.81;47.54;102426.17;1756163;81;21348;-79
2020/12/07 04:22:33;;;;;;;29.35;9.68;;;;;;;-0.83;47.46;102426.19;1756882;81;21093;-78
2020/12/07 04:25:01;;;;;;;33.08;13.15;;;;;;;-0.79;47.46;102445.41;1756575;81;21133;-79
2020/12/07 04:27:29;;;;;;;38.67;13.38;;;;;;;-0.83;47.47;102430.14;1756780;81;21081;-80
2020/12/07 04:29:58;;;;;;;24.57;9.85;;;;;;;-0.87;47.48;102442.09;1801943;79;21127;-80
2020/12/07 04:32:25;;;;;;;21.23;9.75;;;;;;;-1.02;47.60;102431.03;1757003;80;21167;-78
2020/12/07 04:34:53;;;;;;;19.50;9.53;;;;;;;-1.02;47.78;102423.14;1786155;77;21180;-83
2020/12/07 04:37:21;;;;;;;19.10;9.38;;;;;;;-0.96;47.76;102426.06;1769456;81;21182;-79
2020/12/07 04:39:49;;;;;;;12.00;6.15;;;;;;;-0.67;47.20;102421.44;1770315;80;21074;-80
2020/12/07 04:42:17;;;;;;;12.03;5.70;;;;;;;-0.86;47.54;102421.48;1770164;81;21129;-79
2020/12/07 04:44:46;;;;;;;11.00;6.70;;;;;;;-0.86;47.54;102422.34;1770698;81;21165;-79
2020/12/07 04:47:17;;;;;;;12.15;6.25;;;;;;;-0.88;47.45;102421.95;1770895;81;21102;-81
2020/12/07 04:49:46;;;;;;;13.68;6.30;;;;;;;-0.85;47.48;102417.94;1771379;79;21178;-78
2020/12/07 04:52:14;;;;;;;11.10;5.10;;;;;;;-0.79;47.37;102427.85;1783708;77;21655;-80
2020/12/07 04:54:45;;;;;;;12.55;6.83;;;;;;;-0.73;47.25;102408.41;1790846;79;21127;-78
2020/12/07 04:57:15;;;;;;;14.60;6.55;;;;;;;-0.67;47.14;102416.17;1809202;78;22210;-80
2020/12/07 04:59:43;;;;;;;10.38;6.33;;;;;;;-0.64;47.13;102414.76;1797536;79;21202;-80
2020/12/07 05:02:11;;;;;;;13.83;6.92;;;;;;;-0.61;47.17;102412.06;1784451;79;21607;-79
2020/12/07 05:04:39;;;;;;;14.47;7.00;;;;;;;-0.63;46.93;102407.76;1769682;81;21178;-79
2020/12/07 05:07:10;;;;;;;10.30;5.30;;;;;;;-0.68;47.16;102419.72;1770848;79;21200;-80
2020/12/07 05:09:39;;;;;;;8.55;5.15;;;;;;;-0.69;47.18;102413.16;1793650;78;22344;-80
2020/12/07 05:12:16;;;;;;;12.23;5.72;;;;;;;-0.63;46.94;102408.63;1778090;79;21725;-79
2020/12/07 05:14:38;;;;;;;12.40;5.15;;;;;;;-0.65;46.97;102415.67;1800922;79;21127;-80
2020/12/07 05:17:07;;;;;;;14.43;7.42;;;;;;;-0.63;46.95;102414.34;1802961;78;21162;-80
2020/12/07 05:19:34;;;;;;;13.75;6.60;;;;;;;-0.63;46.95;102422.23;1800083;79;21687;-78
2020/12/07 05:22:16;;;;;;;18.82;7.53;;;;;;;-0.67;47.05;102416.17;1736116;81;21382;-79
2020/12/07 05:24:49;;;;;;;10.50;5.40;;;;;;;-0.70;46.85;102410.98;1758967;80;21181;-79
2020/12/07 05:27:18;;;;;;;15.03;6.45;;;;;;;-0.46;46.31;102418.70;1758095;81;21271;-79
2020/12/07 05:32:32;;;;;;;11.95;5.53;;;;;;;-0.81;46.80;102401.18;1719926;80;21157;-78
2020/12/07 05:35:01;;;;;;;10.80;5.95;;;;;;;-0.81;46.70;102405.12;1787103;78;21389;-78
2020/12/07 05:37:33;;;;;;;9.25;5.10;;;;;;;-0.80;46.70;102406.85;1760535;79;21128;-79
2020/12/07 05:40:03;;;;;;;11.93;5.75;;;;;;;-0.89;47.00;102400.50;1781771;80;21156;-79
2020/12/07 05:42:31;;;;;;;13.00;6.58;;;;;;;-0.92;47.11;102407.14;1758446;80;21077;-79
2020/12/07 05:44:59;;;;;;;14.95;6.65;;;;;;;-0.94;46.98;102407.19;1790134;78;21086;-77
2020/12/07 05:47:27;;;;;;;10.43;5.85;;;;;;;-0.98;46.86;102412.55;1786008;80;21364;-78
2020/12/07 05:49:55;;;;;;;12.35;6.08;;;;;;;-1.04;47.08;102407.86;1786021;80;21105;-79
2020/12/07 05:52:44;;;;;;;10.75;6.25;;;;;;;-1.03;47.16;102412.66;1786318;80;21145;-79
2020/12/07 05:55:15;;;;;;;10.58;5.37;;;;;;;-1.06;47.16;102414.05;1765008;80;21181;-80
2020/12/07 05:57:54;;;;;;;9.98;5.25;;;;;;;-1.11;47.08;102407.58;1750196;80;22368;-79
2020/12/07 06:00:22;;;;;;;11.12;6.10;;;;;;;-1.17;47.03;102412.98;1772503;79;21360;-80
2020/12/07 06:02:52;;;;;;;14.53;6.42;;;;;;;-1.26;47.23;102403.99;1781488;78;21117;-78
2020/12/07 06:05:22;;;;;;;15.48;7.37;;;;;;;-1.28;47.27;102410.58;1775480;80;21110;-77
2020/12/07 06:08:06;;;;;;;12.15;6.28;;;;;;;-1.28;47.22;102405.77;1823543;78;21152;-77
2020/12/07 06:10:37;;;;;;;12.20;4.78;;;;;;;-1.31;47.31;102400.61;1769850;79;21565;-78
2020/12/07 06:13:09;;;;;;;18.37;7.03;;;;;;;-1.35;47.34;102400.26;1764298;79;21760;-79
2020/12/07 06:15:37;;;;;;;12.63;6.00;;;;;;;-1.34;47.51;102409.86;1763419;79;21133;-77
2020/12/07 06:18:05;;;;;;;12.98;6.03;;;;;;;-1.31;47.51;102398.84;1754456;79;21143;-77
2020/12/07 06:20:38;;;;;;;21.45;10.82;;;;;;;-1.33;47.42;102402.39;1769072;79;21461;-78
2020/12/07 06:23:06;;;;;;;28.15;12.68;;;;;;;-1.37;47.62;102408.61;1800859;78;21109;-78
2020/12/07 06:25:34;;;;;;;24.72;12.00;;;;;;;-1.39;47.66;102394.65;1760230;81;21382;-78
2020/12/07 06:28:04;;;;;;;15.20;7.50;;;;;;;-1.39;47.77;102401.22;1754398;79;21123;-78
2020/12/07 06:30:37;;;;;;;20.50;9.28;;;;;;;-1.36;47.55;102398.53;1777979;78;21101;-78
2020/12/07 06:33:08;;;;;;;18.90;8.85;;;;;;;-1.35;47.71;102395.00;1793753;79;21086;-77
2020/12/07 06:35:42;;;;;;;12.23;5.42;;;;;;;-1.35;47.95;102395.86;1789222;78;21185;-80
2020/12/07 06:38:10;;;;;;;18.82;7.58;;;;;;;-1.35;47.98;102389.74;1776743;78;21239;-79
2020/12/07 06:40:38;;;;;;;16.02;6.72;;;;;;;-1.28;47.88;102391.31;1784861;78;21211;-78
2020/12/07 06:43:24;;;;;;;24.95;9.93;;;;;;;-1.25;47.65;102391.26;1779074;79;21212;-78
2020/12/07 06:45:55;;;;;;;29.00;11.73;;;;;;;-1.31;47.75;102387.46;1801071;78;21162;-79
2020/12/07 06:48:25;;;;;;;19.37;6.83;;;;;;;-1.30;48.00;102387.88;1758130;79;21208;-79
2020/12/07 06:50:55;;;;;;;16.37;7.15;;;;;;;-1.35;48.01;102395.86;1804631;78;21344;-79
2020/12/07 06:55:57;;;;;;;14.87;7.10;;;;;;;-1.40;48.30;102396.42;1787428;79;21526;-81
2020/12/07 06:58:44;;;;;;;14.13;6.35;;;;;;;-1.30;48.37;102395.30;1781430;77;21661;-79
2020/12/07 07:04:32;;;;;;;14.13;5.75;;;;;;;-1.42;48.20;102398.65;1725039;80;21495;-78
2020/12/07 07:07:01;;;;;;;7.83;4.12;;;;;;;-1.45;48.66;102390.82;1754846;79;21774;-80
2020/12/07 07:09:33;;;;;;;11.90;5.15;;;;;;;-1.37;48.49;102388.89;1738158;80;21576;-79
2020/12/07 07:12:03;;;;;;;9.15;4.92;;;;;;;-1.33;48.46;102378.73;1727812;82;21703;-79
2020/12/07 07:14:32;;;;;;;10.70;5.28;;;;;;;-1.27;48.30;102393.07;1758010;79;21196;-79
2020/12/07 07:17:08;;;;;;;12.23;6.00;;;;;;;-1.19;48.18;102404.70;1732802;80;21316;-78
2020/12/07 07:19:44;;;;;;;11.28;4.90;;;;;;;-1.18;48.06;102377.08;1764706;79;21261;-81
2020/12/07 07:22:17;;;;;;;11.68;5.60;;;;;;;-1.18;47.99;102378.81;1752531;79;21205;-80
2020/12/07 07:24:59;;;;;;;12.40;6.22;;;;;;;-1.16;48.13;102377.89;1747230;80;21205;-81
2020/12/07 07:30:19;;;;;;;13.45;5.58;;;;;;;-1.08;47.87;102394.36;1779925;79;22223;-79
2020/12/07 07:32:48;;;;;;;15.93;6.55;;;;;;;-1.12;47.86;102380.88;1787982;77;21185;-79
2020/12/07 07:35:20;;;;;;;12.85;5.95;;;;;;;-1.14;48.03;102387.91;1760694;79;21140;-80
2020/12/07 07:37:48;;;;;;;12.82;4.92;;;;;;;-1.05;48.06;102389.02;1778446;78;21113;-78
2020/12/07 07:40:19;;;;;;;15.72;6.72;;;;;;;-0.99;47.69;102393.28;1770060;79;21117;-79
2020/12/07 07:42:53;;;;;;;14.10;6.28;;;;;;;-0.96;47.55;102385.75;1791905;79;21396;-78
2020/12/07 07:45:25;;;;;;;10.25;5.12;;;;;;;-0.91;47.59;102377.30;1794144;79;21177;-81
2020/12/07 08:16:23;;;;;;;12.13;4.62;;;;;;;-0.38;45.87;102373.75;1768702;78;21092;-78
2020/12/07 08:18:56;;;;;;;14.43;5.40;;;;;;;-0.42;45.87;102365.06;1771567;78;21077;-78
2020/12/07 08:21:27;;;;;;;13.50;5.58;;;;;;;-0.40;45.77;102361.95;1777198;79;21450;-79
2020/12/07 08:24:05;;;;;;;11.12;6.47;;;;;;;-0.39;45.47;102364.12;1768457;78;21435;-78
2020/12/07 08:26:29;;;;;;;19.37;7.97;;;;;;;-0.43;45.41;102376.50;1738977;80;21655;-78
2020/12/07 08:28:57;;;;;;;15.25;7.20;;;;;;;-0.53;45.61;102349.56;1783077;78;21154;-78
2020/12/07 08:31:26;;;;;;;15.85;6.78;;;;;;;-0.52;45.61;102348.66;1781686;78;21113;-79
2020/12/07 08:34:09;;;;;;;9.48;4.85;;;;;;;-0.47;45.64;102331.42;1711090;79;21098;-79
2020/12/07 08:36:41;;;;;;;10.25;5.75;;;;;;;-0.39;45.64;102335.17;1770195;79;21382;-81
2020/12/07 08:39:09;;;;;;;12.00;6.15;;;;;;;-0.39;45.37;102320.69;1776604;78;21181;-79
2020/12/07 08:41:37;;;;;;;14.87;6.92;;;;;;;-0.37;45.44;102337.30;1775313;79;21193;-78
2020/12/07 08:44:08;;;;;;;12.53;5.85;;;;;;;-0.46;45.65;102314.71;1770722;79;21177;-79
2020/12/07 08:46:39;;;;;;;10.55;6.15;;;;;;;-0.45;45.52;102329.62;1794631;79;21181;-78
2020/12/07 08:49:07;;;;;;;9.05;5.28;;;;;;;-0.46;45.51;102325.70;1784343;78;21243;-79
2020/12/07 08:51:36;;;;;;;13.98;5.78;;;;;;;-0.45;45.63;102334.03;1748907;80;21675;-79
2020/12/07 08:54:05;;;;;;;10.65;5.10;;;;;;;-0.37;45.41;102326.30;1772120;79;21213;-79
2020/12/07 08:56:34;;;;;;;12.65;6.58;;;;;;;-0.39;45.19;102331.22;1773882;78;21026;-78
2020/12/07 08:59:01;;;;;;;12.33;7.28;;;;;;;-0.46;45.26;102319.98;1783742;79;21221;-79
2020/12/07 09:01:30;;;;;;;15.58;8.50;;;;;;;-0.47;45.44;102304.23;1748410;80;21791;-79
2020/12/07 09:04:02;;;;;;;12.40;5.67;;;;;;;-0.52;45.36;102299.95;1777100;79;21569;-80
2020/12/07 09:06:31;;;;;;;14.55;7.67;;;;;;;-0.49;45.52;102302.11;1769625;78;21150;-79
2020/12/07 09:08:59;;;;;;;11.88;6.50;;;;;;;-0.42;45.33;102311.55;1763470;80;21165;-77
2020/12/07 09:11:27;;;;;;;11.30;6.00;;;;;;;-0.41;45.48;102308.00;1772691;79;21206;-78
2020/12/07 09:14:02;;;;;;;11.28;5.62;;;;;;;-0.38;45.17;102304.84;1773977;78;21770;-79
2020/12/07 09:16:29;;;;;;;9.93;5.33;;;;;;;-0.39;45.13;102289.09;1771430;78;21183;-79
2020/12/07 09:18:57;;;;;;;10.30;5.55;;;;;;;-0.33;45.36;102283.65;1763508;78;21684;-80
2020/12/07 09:21:25;;;;;;;12.25;5.60;;;;;;;-0.28;45.31;102282.60;1824523;76;21177;-80
2020/12/07 09:23:53;;;;;;;12.95;6.17;;;;;;;-0.27;45.03;102275.59;1827787;77;21409;-79
2020/12/07 09:26:21;;;;;;;13.00;7.28;;;;;;;-0.25;45.00;102286.94;1828748;77;21334;-78
2020/12/07 09:28:49;;;;;;;12.30;6.70;;;;;;;-0.24;45.00;102286.47;1834152;77;21846;-81
2020/12/07 09:31:21;;;;;;;11.28;6.08;;;;;;;-0.24;45.15;102268.91;1826137;76;21183;-78
2020/12/07 09:33:55;;;;;;;22.98;9.60;;;;;;;-0.18;45.31;102267.42;1756918;80;21170;-78
2020/12/07 09:36:24;;;;;;;24.12;9.18;;;;;;;-0.13;45.26;102262.02;1761814;79;21214;-80
2020/12/07 09:38:55;;;;;;;17.00;7.87;;;;;;;-0.06;45.11;102263.09;1758642;79;21211;-77
2020/12/07 09:41:32;;;;;;;17.77;8.03;;;;;;;0.03;44.76;102267.22;1778112;80;21224;-77
2020/12/07 09:44:00;;;;;;;12.85;5.30;;;;;;;0.03;44.86;102257.14;1738898;80;21703;-80
2020/12/07 09:46:32;;;;;;;9.95;4.85;;;;;;;0.13;45.09;102255.94;1764058;80;21160;-80
2020/12/07 09:49:20;;;;;;;10.80;5.97;;;;;;;0.21;44.89;102243.41;1742973;78;21189;-77
2020/12/07 09:52:01;;;;;;;8.28;4.50;;;;;;;0.28;44.68;102238.81;1781385;78;21197;-78
2020/12/07 09:54:47;;;;;;;25.15;11.95;;;;;;;0.35;44.57;102241.19;1760719;79;21246;-80
2020/12/07 09:57:36;;;;;;;13.38;7.65;;;;;;;0.44;44.70;102251.44;1764402;78;21252;-78
2020/12/07 10:00:13;;;;;;;16.65;7.78;;;;;;;0.47;44.75;102243.44;1745105;80;21218;-78
2020/12/07 10:02:48;;;;;;;13.60;6.33;;;;;;;0.53;44.41;102242.83;1767176;78;21097;-79
2020/12/07 10:05:21;;;;;;;12.23;6.97;;;;;;;0.55;44.29;102237.92;1766184;78;21778;-78
2020/12/07 10:08:00;;;;;;;12.50;6.72;;;;;;;0.62;44.33;102239.43;1767174;78;21190;-77
2020/12/07 10:10:32;;;;;;;15.20;6.12;;;;;;;0.66;44.13;102242.84;1767334;79;21209;-80
2020/12/07 10:13:18;;;;;;;11.75;6.08;;;;;;;0.68;44.04;102223.85;1762938;79;21170;-78
2020/12/07 10:18:35;;;;;;;10.68;6.28;;;;;;;0.83;43.79;102221.17;1831222;76;22054;-77
2020/12/07 10:21:31;;;;;;;13.70;6.62;;;;;;;0.82;43.70;102220.75;1830170;77;21227;-77
2020/12/07 10:24:01;;;;;;;10.53;5.62;;;;;;;0.75;43.66;102217.02;1802870;77;21929;-81
2020/12/07 10:30:13;;;;;;;11.53;5.40;;;;;;;0.68;43.67;102216.83;1804409;77;21232;-80
2020/12/07 10:32:50;;;;;;;14.28;6.53;;;;;;;0.55;43.94;102232.66;1831575;77;21221;-81
2020/12/07 10:35:19;;;;;;;26.40;11.60;;;;;;;0.37;44.19;102207.75;1837054;77;21101;-80
2020/12/07 10:38:05;;;;;;;19.80;8.95;;;;;;;0.34;44.33;102210.48;1827750;77;21196;-82
2020/12/07 10:40:48;;;;;;;16.15;8.05;;;;;;;0.37;44.37;102211.70;1832423;76;21906;-82
2020/12/07 10:43:21;;;;;;;14.78;7.25;;;;;;;0.33;44.37;102196.04;1828809;77;21125;-80
2020/12/07 10:45:49;;;;;;;20.17;9.58;;;;;;;0.30;44.80;102193.03;1797397;79;21058;-78
2020/12/07 10:48:19;;;;;;;22.58;10.58;;;;;;;0.36;44.74;102190.64;1838338;77;21221;-78
2020/12/07 10:51:01;;;;;;;17.65;7.92;;;;;;;0.31;44.43;102177.62;1830041;77;22533;-79
2020/12/07 10:53:48;;;;;;;;;;;;;;;;;;;;;
2020/12/07 10:56:34;;;;;;;16.85;6.55;;;;;;;0.19;44.89;102196.48;1811082;77;21125;-78
2020/12/07 10:59:05;;;;;;;10.43;5.00;;;;;;;0.16;45.21;102190.84;1795445;77;21174;-78
2020/12/07 11:01:34;;;;;;;11.93;5.17;;;;;;;0.20;45.05;102193.79;1823639;77;21085;-79
2020/12/07 11:04:03;;;;;;;12.85;5.87;;;;;;;0.25;45.06;102177.38;1796012;79;21196;-78
2020/12/07 11:06:34;;;;;;;9.70;5.60;;;;;;;0.29;44.87;102190.00;1763999;80;21168;-81
2020/12/07 11:09:06;;;;;;;12.73;6.70;;;;;;;0.32;44.89;102178.48;1831289;77;21089;-79
2020/12/07 11:11:30;;;;;;;13.22;6.90;;;;;;;0.34;44.95;102176.67;1828923;77;21101;-79
2020/12/07 11:13:58;;;;;;;10.60;5.60;;;;;;;0.39;44.99;102176.92;1834466;77;21077;-81
2020/12/07 11:16:26;;;;;;;15.63;7.17;;;;;;;0.45;45.09;102176.70;1832885;77;22789;-80
2020/12/07 11:18:54;;;;;;;12.18;6.87;;;;;;;0.49;45.06;102166.92;1835335;76;21500;-80
2020/12/07 11:21:22;;;;;;;15.15;6.20;;;;;;;0.54;45.13;102162.35;1842875;77;21101;-80
2020/12/07 11:23:51;;;;;;;10.88;5.78;;;;;;;0.56;44.92;102169.77;1834473;77;21077;-80
2020/12/07 11:26:20;;;;;;;16.40;6.87;;;;;;;0.60;44.76;102158.67;1842109;77;21100;-79
2020/12/07 11:28:50;;;;;;;14.83;6.67;;;;;;;0.59;44.84;102161.77;1832594;77;21370;-80
2020/12/07 11:31:18;;;;;;;10.55;6.28;;;;;;;0.60;44.83;102152.08;1789515;79;21131;-78
2020/12/07 11:33:46;;;;;;;12.45;5.80;;;;;;;0.60;45.02;102148.98;1763728;80;21671;-77
2020/12/07 11:36:16;;;;;;;9.45;5.25;;;;;;;0.64;45.12;102156.33;1831782;77;21193;-80
2020/12/07 11:41:35;;;;;;;17.82;5.85;;;;;;;0.75;44.92;102146.26;1830646;77;22911;-80
2020/12/07 11:46:32;;;;;;;12.45;6.00;;;;;;;0.84;44.80;102149.89;1833779;77;21785;-79
2020/12/07 11:49:00;;;;;;;12.33;5.65;;;;;;;0.85;44.72;102145.02;1801006;76;21129;-80
2020/12/07 11:51:28;;;;;;;16.62;6.83;;;;;;;0.84;44.68;102149.89;1827791;76;21458;-78
2020/12/07 11:53:56;;;;;;;18.35;8.75;;;;;;;0.86;44.81;102149.36;1798767;78;21192;-79
2020/12/07 11:56:32;;;;;;;25.92;8.85;;;;;;;0.83;44.71;102153.91;1818892;77;21223;-77
2020/12/07 11:59:00;;;;;;;16.03;8.30;;;;;;;0.76;44.99;102144.02;1831391;77;21142;-78
2020/12/07 12:01:31;;;;;;;14.30;6.30;;;;;;;0.78;44.97;102144.84;1838504;76;21314;-77
2020/12/07 12:04:00;;;;;;;11.68;5.47;;;;;;;0.78;44.57;102151.44;1832189;77;21175;-80
2020/12/07 12:06:34;;;;;;;13.90;6.28;;;;;;;0.80;44.43;102150.91;1835503;77;21372;-80
2020/12/07 12:09:10;;;;;;;12.93;6.62;;;;;;;0.72;44.50;102147.67;1830517;77;21113;-79
2020/12/07 12:11:40;;;;;;;13.15;6.72;;;;;;;0.74;44.88;102152.00;1833361;77;21896;-79
2020/12/07 12:14:09;;;;;;;11.80;5.78;;;;;;;0.80;45.24;102152.69;1803969;77;21192;-79
2020/12/07 12:16:39;;;;;;;12.43;6.90;;;;;;;0.89;45.12;102147.95;1840356;77;21101;-79
2020/12/07 12:19:11;;;;;;;13.38;6.35;;;;;;;0.91;44.72;102146.13;1822760;77;21212;-79
2020/12/07 12:21:39;;;;;;;12.93;7.25;;;;;;;0.86;44.58;102136.17;1840750;76;21138;-78
2020/12/07 12:24:10;;;;;;;13.45;7.40;;;;;;;0.84;44.74;102141.98;1831038;76;21153;-76
2020/12/07 12:26:40;;;;;;;12.53;7.33;;;;;;;0.86;45.11;102144.55;1836745;77;21089;-77
2020/12/07 12:29:10;;;;;;;13.32;6.92;;;;;;;0.90;44.96;102152.30;1825107;77;21146;-77